• Join FlightAware (Why Join?)
  • Login
  • US Flag 
07:27PM EST


 

Airport Tracker/Info


-or-


 

Live Flight TrackerFlight Track Log ✈ TCF3494 ✈ 24-Sep-2013 ✈ KDEN - KSLC

Flight Track Log - Related Links

Times and Time Zones

All times are in EDT time to prevent confusion due to time zone crossing. See the TCF3494 flight status page for this flight to view local times or setup timezone preferences in your user account.

Time Position Orientation Groundspeed Altitude Reporting Facility
EDT Latitude Longitude Course Direction KTS MPH feet Rate Location/Type
11:25AM 39.8333 -104.7500 277° West 167 192 6,600  Level Denver TRACON
11:26AM 39.8528 -104.7836 307° West 191 220 6,900 1,080 Climbing Denver Center
11:27AM 39.8919 -104.8636 303° West 261 300 8,300 1,920 Climbing Denver Center
11:28AM 39.9508 -105.2384 275° West  Level Estimated
11:28AM 39.9153 -104.9628 287° West 290 334 10,900  Level Denver Center
11:29AM 39.9727 -105.3800 275° West  Level Estimated
11:29AM 39.9256 -105.0836 276° West 312 359 12,400  Level Denver Center
11:30AM 39.9659 -105.5241 267° West  Level FlightAware Approximate
11:30AM 39.9358 -105.2078 276° West 342 394 14,300  Level Denver Center
11:31AM 39.9881 -105.6656 277° West  Level Estimated
11:31AM 39.9467 -105.3450 276° West 353 406 16,400  Level Denver Center
11:32AM 39.9569 -105.4725 276° West 355 409 17,800 1,500 Climbing Denver Center
11:33AM 39.9708 -105.6139 277° West 366 421 19,500 1,500 Climbing Denver Center
11:34AM 39.9756 -105.7464 273° West 369 425 21,000 1,260 Climbing Denver Center
11:35AM 39.9719 -105.8881 268° West 366 421 22,200 1,200 Climbing Denver Center
11:36AM 39.9800 -106.0242 274° West 376 433 23,500 1,200 Climbing Denver Center
11:37AM 39.9878 -106.1611 274° West 379 436 24,800 1,080 Climbing Denver Center
11:38AM 39.9950 -106.2981 274° West 380 437 25,800 960 Climbing Denver Center
11:39AM 40.0028 -106.4392 274° West 388 447 26,800 1,020 Climbing Denver Center
11:40AM 40.0103 -106.6031 273° West 392 451 28,000 540 Climbing Denver Center
11:41AM 40.0167 -106.7439 273° West 405 466 28,000  Level Denver Center
11:42AM 40.0261 -106.9100 274° West 411 473 28,000  Level Denver Center
11:43AM 40.0308 -107.0511 273° West 409 471 28,000  Level Denver Center
11:45AM 40.0389 -107.2169 274° West 412 474 28,000  Level Denver Center
11:46AM 40.0453 -107.3575 273° West 408 470 28,000  Level Denver Center
11:47AM 40.0517 -107.5239 273° West 411 473 28,000  Level Denver Center
11:48AM 40.0583 -107.6653 274° West 410 472 28,000  Level Denver Center
11:49AM 40.0642 -107.8303 273° West 410 472 28,000  Level Denver Center
11:50AM 40.0703 -107.9719 273° West 410 472 28,000  Level Denver Center
11:51AM 40.0772 -108.1367 273° West 409 471 28,000  Level Denver Center
11:52AM 40.0833 -108.2786 273° West 411 473 28,000  Level Denver Center
11:53AM 40.0900 -108.4439 273° West 410 472 28,000  Level Denver Center
11:54AM 40.0967 -108.5847 274° West 410 472 28,000  Level Denver Center
11:55AM 40.1031 -108.7503 273° West 412 474 28,000  Level Denver Center
11:56AM 40.1083 -108.8917 273° West 410 472 28,000  Level Denver Center
11:57AM 40.1153 -109.0572 273° West 411 473 28,000  Level Denver Center
11:58AM 40.1181 -109.1508 272° West 409 471 28,000  Level Salt Lake Center
11:59AM 40.1231 -109.2892 273° West 402 463 28,000  Level Salt Lake Center
12:00PM 40.1275 -109.4472 272° West 393 452 28,000  Level Salt Lake Center
12:01PM 40.1317 -109.5761 272° West 376 433 28,000  Level Salt Lake Center
12:02PM 40.1361 -109.7150 272° West 349 402 28,000  Level Salt Lake Center
12:03PM 40.1403 -109.8358 273° West 348 400 28,000  Level Salt Lake Center
12:04PM 40.1450 -109.9575 273° West 350 403 28,000  Level Salt Lake Center
12:05PM 40.1483 -110.0950 272° West 341 392 28,000  Level Salt Lake Center
12:06PM 40.1489 -110.2097 270° West 332 382 28,000  Level Salt Lake Center
12:07PM 40.1475 -110.3450 269° West 334 384 28,000  Level Salt Lake Center
12:08PM 40.1461 -110.4603 269° West 333 383 28,000 -480 Level Salt Lake Center
12:09PM 40.1447 -110.5931 269° West 329 379 27,100 -960 Descending Salt Lake Center
12:10PM 40.1442 -110.7056 270° West 324 373 26,100 -1,080 Descending Salt Lake Center
12:11PM 40.1428 -110.8386 269° West 328 377 24,900 -1,020 Descending Salt Lake Center
12:12PM 40.1406 -110.9583 269° West 345 397 24,000 -1,020 Descending Salt Lake Center
12:13PM 40.1392 -111.0850 269° West 349 402 22,900 -1,080 Descending Salt Lake Center
12:14PM 40.1369 -111.2086 269° West 342 394 21,800 -1,140 Descending Salt Lake Center
12:15PM 40.1339 -111.3539 268° West 334 384 20,600 -1,140 Descending Salt Lake Center
12:16PM 40.1314 -111.4794 269° West 344 396 19,500 -780 Descending Salt Lake Center
12:17PM 40.1489 -111.5994 281° West 340 391 19,000 -480 Descending Salt Lake Center
12:17PM 40.1542 -111.6236 286° West 346 398 19,000  Level Salt Lake Center
12:18PM 40.1794 -111.6964 294° West 350 403 19,000  Level Salt Lake Center
12:18PM 40.1908 -111.7139 310° West 346 398 19,000  Level Salt Lake Center
12:19PM 40.2214 -111.8086 293° West 350 403 19,000 -240 Level Salt Lake Center
12:19PM 40.2342 -111.8314 306° West 353 406 18,800 -1,620 Descending Salt Lake Center
12:20PM 40.2653 -111.9203 295° West 346 398 17,400 -1,800 Descending Salt Lake Center
12:20PM 40.2819 -111.9381 321° Northwest 345 397 17,000 -1,380 Descending Salt Lake Center
12:21PM 40.3481 -112.0019 324° Northwest 358 412 16,000 -1,380 Descending Salt Lake Center
12:21PM 40.3814 -112.0217 336° Northwest 356 410 15,600 -1,320 Descending Salt Lake Center
12:22PM 40.4383 -112.0561 335° Northwest 352 405 14,700 -1,680 Descending Salt Lake Center
12:22PM 40.4742 -112.0581 358° North 352 405 13,900 -1,980 Descending Salt Lake Center
12:23PM 40.5336 -112.0689 352° North 342 394 12,700 -1,680 Descending Salt Lake Center
12:23PM 40.5669 -112.0697 359° North 330 380 12,200 -1,620 Descending Salt Lake Center
12:24PM 40.6217 -112.0789 353° North 319 367 11,100 -1,200 Descending Salt Lake Center
12:24PM 40.6536 -112.0814 357° North 314 361 11,000 -120 Descending Salt Lake Center
12:25PM 40.7075 -112.0894 354° North 308 354 11,000  Level Salt Lake Center
12:25PM 40.7367 -112.0897 360° North 301 346 11,000  Level Salt Lake Center
12:26PM 40.7806 -112.0986 351° North 245 282 11,000  Level Salt Lake Center
12:27PM 40.8036 -112.0986 360° North 240 276 11,000 -840 Level Salt Lake Center
12:27PM 40.8461 -112.1047 354° North 237 273 10,200 -1,260 Descending Salt Lake Center
12:28PM 40.8686 -112.1061 357° North 235 270 9,700 -1,500 Descending Salt Lake Center
12:28PM 40.9119 -112.1108 355° North 235 270 8,700 -1,860 Descending Salt Lake Center
12:29PM 40.9383 -112.0847 37° Northeast 237 273 7,800 -1,380 Descending Salt Lake Center
12:29PM 40.9431 -112.0492 80° East 227 261 7,300 -1,020 Descending Salt Lake Center
12:30PM 40.9269 -112.0161 123° Southeast 212 244 6,800 -1,020 Descending Salt Lake Center
12:30PM 40.8989 -112.0103 171° South 189 217 6,300 -1,080 Descending Salt Lake Center
12:31PM 40.8800 -112.0083 176° South 164 189 5,700 -1,140 Descending Salt Lake Center
12:31PM 40.8614 -112.0061 175° South 133 153 5,200 -780 Descending Salt Lake Center
12:32PM 40.8458 -112.0031 172° South 126 145 4,900 -600 Descending Salt Lake Center
12:32PM 40.8264 -112.0039 182° South 125 144 4,600 -540 Descending Salt Lake Center
12:33PM 40.8111 -111.9992 167° South 124 143 4,400 -360 Descending Salt Lake Center